Terminal Aerodrome Forecast
Issued by NWS Jacksonville, FL

Home | Current Version | Previous Version | Text Only | Print | Product List | Glossary On
Versions: 1 2 3 4 5 6 7 8 9 10 11 12 13 14 15 16 17 18 19 20 21 22 23 24 25 26 27 28 29 30 31 32 33 34 35 36
000
FTUS42 KJAX 300500 RRA
TAFGNV
TAF
KGNV 300548Z 3006/0106 36004KT 5SM BR VCSH BKN004 OVC008
     FM300900 34004KT 3SM BR VCSH OVC004
     FM301500 34005KT P6SM VCSH BKN008 OVC015
     FM301700 35006KT P6SM VCSH BKN015 OVC025
     FM301900 35006KT P6SM VCSH SCT020 BKN040=

USA.gov is the U.S. government's official web portal to all federal, state and local government web resources and services.